Latest Coastal Weather Observations for Kowanyama

IDQ60701

Issued at 7:35 pm EST Thursday 27 November 2014 (issued every 10 minutes, with the page automatically refreshed every 10 minutes)

About coastal observations | Map of coastal stations | Coastal observations for QLD | Marine services | Other Formats
Station Details ID: 029038 Name: KOWANYAMA AIRPORT Lat: -15.48 Lon: 141.75 Height: 9.6 m
Data from the previous 72 hours. | See also: Recent months at Kowanyama
Date/Time
EST
Temp

°C
Wind Pressure Rain
since 9am
mm
Weather Cloud Vis
km
Sea
Height
m
Swell
Dir
 
Speed
knots
Gust
knots
hPa Trend Height
m
Period
s
Dir
27/07:30pm 30.0 W 8 11 1007.3 - 0.0 - - - - - - -
27/07:00pm 31.0 W 10 12 1007.0 - 0.0 - - - - - - -
27/06:30pm 31.9 WNW 11 14 1006.9 - 0.0 - - - - - - -
27/06:00pm 33.1 W 9 12 1006.6 - 0.0 - Mostly clear - - - - -
27/05:30pm 33.7 WSW 12 17 1006.3 - 0.0 - - - - - - -
27/05:00pm 34.3 WSW 11 15 1005.9 - 0.0 - - - - - - -
27/04:30pm 35.6 WSW 10 13 1005.7 - 0.0 - Partly cloudy - - - - -
27/04:00pm 35.9 WSW 11 15 1005.5 - 0.0 - Partly cloudy - - - - -
27/03:30pm 36.3 WSW 7 11 1005.9 - 0.0 - Partly cloudy - - - - -
27/03:00pm 36.6 E 4 9 1006.1 - 0.0 - Cloudy - - - - -
27/02:30pm 36.2 S 3 6 1006.6 - 0.0 - Partly cloudy - - - - -
27/02:00pm 36.3 E 5 9 1007.0 - 0.0 - Partly cloudy - - - - -
27/01:30pm 36.8 NNE 5 11 1007.4 - 0.0 - Partly cloudy - - - - -
27/01:00pm 36.1 NNE 4 9 1008.0 - 0.0 - Partly cloudy - - - - -
27/12:30pm 35.0 ESE 7 10 1008.6 - 0.0 - Partly cloudy - - - - -
27/12:00pm 35.2 ENE 7 12 1009.1 - 0.0 - Mostly clear - - - - -
27/11:30am 33.7 NNE 9 14 1009.5 - 0.0 - - - - - - -
27/11:00am 32.7 NE 9 14 1009.9 - 0.0 - - - - - - -
27/10:30am 31.8 ENE 9 13 1010.4 - 0.0 - - - - - - -
27/10:00am 31.6 ENE 10 15 1010.7 - 0.0 - Cloudy - - - - -
27/09:30am 31.4 ENE 9 16 1010.9 - 0.0 - Partly cloudy - - - - -
27/09:00am 30.2 E 10 14 1010.8 - 0.0 - - - - - - -
27/08:30am 29.2 ENE 8 11 1010.7 - 0.0 - - - - - - -
27/08:00am 28.7 ENE 8 13 1010.8 - 0.0 - - - - - - -
27/07:30am 27.5 ENE 5 8 1010.8 - 0.0 - - - - - - -
27/07:00am 27.1 E 5 7 1010.4 - 0.0 - Partly cloudy - - - - -
27/06:30am 26.7 ENE 5 7 1010.2 - 0.0 - Cloudy - - - - -
27/06:00am 26.6 NE 5 7 1010.0 - 0.0 - Mostly cloudy - - - - -
27/05:30am 26.7 NE 4 7 1009.8 - 0.0 - Partly cloudy - - - - -
27/05:00am 27.1 ENE 5 8 1009.5 - 0.0 - Partly cloudy - - - - -
27/04:30am 27.5 NE 5 8 1009.2 - 0.0 - Partly cloudy - - - - -
27/04:00am 27.5 NNE 3 5 1008.9 - 0.0 - Cloudy - - - - -
27/03:30am 27.7 NE 5 8 1008.8 - 0.0 - Partly cloudy - - - - -
27/03:00am 27.6 NE 5 7 1008.6 - 0.0 - Mostly cloudy - - - - -
27/02:30am 26.8 ESE 6 8 1008.6 - 0.0 - Cloudy - - - - -
27/02:00am 27.3 CALM 0 3 1008.7 - 0.0 - Partly cloudy - - - - -
27/01:30am 27.4 ENE 4 7 1008.8 - 0.0 - Cloudy - - - - -
27/01:00am 27.2 E 4 6 1009.3 - 0.0 - Cloudy - - - - -
27/12:30am 27.1 CALM 0 0 1009.5 - 0.0 - Partly cloudy - - - - -
27/12:00am 27.0 ENE 4 6 1009.5 - 0.0 - Cloudy - - - - -
 
Date/Time
EST
Temp

°C
Wind Pressure Rain
since 9am
mm
Weather Cloud Vis
km
Sea
Height
m
Swell
Dir
 
Speed
knots
Gust
knots
hPa Trend Height
m
Period
s
Dir
26/11:30pm 26.8 NE 7 11 1009.7 - 0.0 - Partly cloudy - - - - -
26/11:00pm 27.5 NE 8 13 1009.6 - 0.0 - Partly cloudy - - - - -
26/10:30pm 29.0 NE 3 7 1009.4 - 0.0 - Partly cloudy - - - - -
26/10:00pm 29.4 NE 2 4 1009.1 - 0.0 - Partly cloudy - - - - -
26/09:30pm 29.4 NE 5 7 1008.6 - 0.0 - Partly cloudy - - - - -
26/09:00pm 29.0 SW 5 9 1007.4 - 0.0 - Mostly clear - - - - -
26/08:30pm 29.2 SW 6 7 1007.1 - 0.0 - Partly cloudy - - - - -
26/08:00pm 29.6 SW 7 11 1006.7 - 0.0 - Partly cloudy - - - - -
26/07:30pm 30.3 SW 9 12 1006.4 - 0.0 - Partly cloudy - - - - -
26/07:00pm 31.1 WSW 8 9 1006.1 - 0.0 - Partly cloudy - - - - -
26/06:30pm 32.0 W 8 11 1005.8 - 0.0 - Partly cloudy - - - - -
26/06:00pm 33.1 W 8 11 1005.5 - 0.0 - Mostly clear - - - - -
26/05:30pm 32.6 W 9 13 1005.3 - 0.0 - Partly cloudy - - - - -
26/05:00pm 33.0 W 11 15 1005.1 - 0.0 - Partly cloudy - - - - -
26/04:30pm 36.2 WSW 9 12 1004.8 - 0.0 - - - - - - -
26/04:00pm 36.8 NE 4 8 1004.9 - 0.0 - - - - - - -
26/03:30pm 36.9 NE 7 11 1005.1 - 0.0 - - - - - - -
26/03:00pm 37.6 E 5 9 1005.4 - 0.0 - - - - - - -
26/02:30pm 37.5 ENE 7 9 1005.8 - 0.0 - - - - - - -
26/02:00pm 35.7 N 7 13 1006.2 - 0.0 - - - - - - -
26/01:30pm 35.8 NE 7 13 1006.7 - 0.0 - - - - - - -
26/01:00pm 35.2 ENE 7 11 1007.1 - 0.0 - - - - - - -
26/12:30pm 34.2 N 6 10 1007.8 - 0.0 - - - - - - -
26/12:00pm 32.8 ENE 4 10 1008.4 - 0.0 - - - - - - -
26/11:30am 32.8 E 9 12 1008.9 - 0.0 - - - - - - -
26/11:00am 31.4 ENE 8 11 1009.4 - 0.0 - - - - - - -
26/10:30am 32.1 E 7 12 1009.8 - 0.0 - - - - - - -
26/10:00am 30.7 ENE 8 12 1010.0 - 0.0 - - - - - - -
26/09:30am 29.8 ENE 8 12 1010.1 - 0.0 - - - - - - -
26/09:00am 28.8 ENE 8 13 1010.1 - 0.0 - - - - - - -
26/08:30am 28.7 ENE 8 13 1010.3 - 0.0 - - - - - - -
26/08:00am 27.6 E 5 7 1010.4 - 0.0 - - - - - - -
26/07:30am 26.8 E 4 7 1010.1 - 0.0 - - - - - - -
26/07:00am 26.3 E 4 6 1010.0 - 0.0 - - - - - - -
26/06:30am 25.6 E 4 6 1009.8 - 0.0 - - - - - - -
26/06:00am 25.6 CALM 0 0 1009.5 - 0.0 - - - - - - -
26/05:30am 26.1 CALM 0 3 1009.0 - 0.0 - Partly cloudy - - - - -
26/05:00am 26.5 NNE 4 6 1008.6 - 0.0 - Partly cloudy - - - - -
26/04:30am 26.9 NNE 4 6 1008.5 - 0.0 - Partly cloudy - - - - -
26/04:00am 27.2 NNE 2 5 1008.4 - 0.0 - Partly cloudy - - - - -
26/03:30am 27.5 NNE 4 6 1008.4 - 0.0 - Partly cloudy - - - - -
26/03:00am 27.9 NNE 4 7 1008.2 - 0.0 - Cloudy - - - - -
26/02:30am 28.1 NE 5 7 1008.4 - 0.0 - - - - - - -
26/02:00am 28.4 NE 5 7 1008.5 - 0.0 - - - - - - -
26/01:30am 28.1 NE 4 7 1008.5 - 0.0 - - - - - - -
26/01:00am 27.8 NE 3 4 1008.8 - 0.0 - - - - - - -
26/12:30am 28.4 NNE 1 3 1009.1 - 0.0 - Partly cloudy - - - - -
26/12:00am 28.3 NE 2 3 1009.3 - 0.0 - Cloudy - - - - -
 
Date/Time
EST
Temp

°C
Wind Pressure Rain
since 9am
mm
Weather Cloud Vis
km
Sea
Height
m
Swell
Dir
 
Speed
knots
Gust
knots
hPa Trend Height
m
Period
s
Dir
25/11:30pm 28.3 NE 3 4 1009.4 - 0.0 - Partly cloudy - - - - -
25/11:00pm 27.8 NE 2 4 1009.3 - 0.0 - Partly cloudy - - - - -
25/10:30pm 28.1 CALM 0 0 1009.0 - 0.0 - Partly cloudy - - - - -
25/10:00pm 29.1 CALM 0 2 1008.8 - 0.0 - Partly cloudy - - - - -
25/09:30pm 29.0 NE 8 11 1008.5 - 0.0 - Partly cloudy - - - - -
25/09:00pm 29.0 NW 2 4 1007.2 - 0.0 - Mostly cloudy - - - - -
25/08:30pm 29.2 WSW 6 8 1006.7 - 0.0 - Partly cloudy - - - - -
25/08:00pm 29.6 W 7 8 1006.4 - 0.0 - - - - - - -
25/07:30pm 30.0 W 8 11 1006.4 - 0.0 - Partly cloudy - - - - -
25/07:00pm 30.8 W 8 11 1006.0 - 0.0 - Partly cloudy - - - - -
25/06:30pm 31.5 WSW 9 15 1005.7 - 0.0 - Partly cloudy - - - - -
25/06:00pm 32.3 W 10 13 1005.5 - 0.0 - Cloudy - - - - -
25/05:30pm 33.3 WNW 13 16 1005.3 - 0.0 - Partly cloudy - - - - -
25/05:00pm 34.4 W 13 18 1004.9 - 0.0 - - - - - - -
25/04:30pm 34.3 W 11 15 1004.8 - 0.0 - Partly cloudy - - - - -
25/04:00pm 35.3 W 12 16 1004.9 - 0.0 - Partly cloudy - - - - -
25/03:30pm 37.6 SE 5 11 1005.1 - 0.0 - Partly cloudy - - - - -
25/03:00pm 38.0 E 8 14 1005.4 - 0.0 - Mostly clear - - - - -
25/02:30pm 37.3 SE 8 15 1006.0 - 0.0 - Partly cloudy - - - - -
25/02:00pm 36.6 NNE 6 10 1006.4 - 0.0 - - - - - - -
25/01:30pm 36.4 E 8 15 1006.9 - 0.0 - - - - - - -
25/01:00pm 35.9 SSE 11 16 1007.4 - 0.0 - - - - - - -
25/12:30pm 35.0 NE 6 10 1007.9 - 0.0 - - - - - - -
25/12:00pm 34.6 ENE 8 11 1008.7 - 0.0 - - - - - - -
25/11:30am 34.5 E 7 13 1009.3 - 0.0 - - - - - - -
25/11:00am 33.4 E 8 16 1009.9 - 0.0 - - - - - - -
25/10:30am 32.2 ENE 9 15 1010.3 - 0.0 - - - - - - -
25/10:00am 31.3 ENE 7 11 1010.6 - 0.0 - - - - - - -
25/09:30am 30.7 ENE 9 15 1010.8 - 0.0 - - - - - - -
25/09:00am 28.9 NNE 10 14 1011.0 - 0.0 - - - - - - -
25/08:30am 29.0 E 8 12 1011.3 - 0.0 - Partly cloudy - - - - -
25/08:00am 28.3 ENE 8 13 1011.5 - 0.0 - Partly cloudy - - - - -
25/07:30am 27.3 ENE 5 8 1011.4 - 0.0 - Partly cloudy - - - - -
25/07:00am 26.7 E 4 7 1011.2 - 0.0 - Partly cloudy - - - - -
25/06:30am 26.1 ENE 4 6 1010.5 - 0.0 - Partly cloudy - - - - -
25/06:00am 25.8 NE 4 5 1009.8 - 0.0 - Cloudy - - - - -
25/05:30am 26.3 NE 1 3 1009.8 - 0.0 - Partly cloudy - - - - -
25/05:00am 26.6 NE 4 5 1009.7 - 0.0 - Partly cloudy - - - - -
25/04:30am 26.7 ENE 2 4 1009.6 - 0.0 - Partly cloudy - - - - -
25/04:00am 27.1 NE 4 5 1009.1 - 0.0 - Partly cloudy - - - - -
25/03:30am 27.7 NNE 5 7 1009.1 - 0.0 - Partly cloudy - - - - -
25/03:00am 27.8 NNE 5 8 1009.3 - 0.0 - Cloudy - - - - -
25/02:30am 28.1 NNE 6 9 1009.4 - 0.0 - Partly cloudy - - - - -
25/02:00am 27.9 NNE 6 10 1009.6 - 0.0 - Partly cloudy - - - - -
25/01:30am 27.9 NNE 4 8 1009.7 - 0.0 - Cloudy - - - - -
25/01:00am 27.9 N 1 3 1010.2 - 0.0 - Partly cloudy - - - - -
25/12:30am 27.9 N 4 6 1010.4 - 0.0 - Partly cloudy - - - - -
25/12:00am 27.6 N 5 8 1010.6 - 0.0 - Cloudy - - - - -
 
Date/Time
EST
Temp

°C
Wind Pressure Rain
since 9am
mm
Weather Cloud Vis
km
Sea
Height
m
Swell
Dir
 
Speed
knots
Gust
knots
hPa Trend Height
m
Period
s
Dir
24/11:30pm 27.6 NNE 7 10 1010.6 - 0.0 - Partly cloudy - - - - -
24/11:00pm 27.6 ESE 3 7 1010.8 - 0.0 - Partly cloudy - - - - -
24/10:30pm 28.3 SE 2 4 1010.7 - 0.0 - Partly cloudy - - - - -
24/10:00pm 29.4 ESE 7 11 1010.7 - 0.0 - Cloudy - - - - -
24/09:30pm 29.0 NE 3 5 1009.7 - 0.0 - Partly cloudy - - - - -
24/09:00pm 28.9 N 5 7 1009.3 - 0.0 - Cloudy - - - - -
24/08:30pm 28.9 W 5 8 1008.2 - 0.0 - Cloudy - - - - -
24/08:00pm 29.1 W 6 9 1007.5 - 0.0 - Partly cloudy - - - - -

Other Formats:

Comma delimited format used in spreadsheet applications
http://www.bom.gov.au/fwo/IDQ60701/IDQ60701.94268.axf

JavaScript Object Notation format (JSON) in row-major order
http://www.bom.gov.au/fwo/IDQ60701/IDQ60701.94268.json